KWRI/WRI METAR and TAF weather

Enter ICAO airport designator
Station Type Date Time Source
KWRI METAR 2020/01/18 12:56 UTC NOAA

KWRI 181256Z AUTO 08003KT 10SM BKN080 OVC100 M06/M15 A3055 RMK AO2 SLP347 T10611151


Station Type Date Time Source
KWRI Decoded METAR 2020/01/18 12:56 UTC NOAA

Mcguire Air Force Base, NJ, United States (KWRI) 40-01N 074-36W
Jan 18, 2020 - 07:56 AM EST / 2020.01.18 1256 UTC
Wind: from the E (080 degrees) at 3 MPH (3 KT):0
Visibility: 10 mile(s):0
Sky conditions: overcast
Temperature: 21.0 F (-6.1 C)
Dew Point: 4.8 F (-15.1 C)
Relative Humidity: 48%
Pressure (altimeter): 30.55 in. Hg (1034 hPa)
ob: KWRI 181256Z AUTO 08003KT 10SM BKN080 OVC100 M06/M15 A3055 RMK AO2 SLP347 T10611151
cycle: 13

Station Type Date Time Source
KWRI TAF 2020/01/18 10:10 UTC NOAA

TAF KWRI 181000Z 1810/1916 VRB04KT 9999 BKN150 BKN220 QNH3054INS
BECMG 1813/1814 18006KT 9999 OVC090 620904 QNH3038INS
BECMG 1817/1818 20009KT 6000 -SN SCT018 OVC030 620308 QNH3025INS
BECMG 1818/1819 18009KT 3200 -SN BKN013 OVC080 620139 QNH3003INS
TEMPO 1822/1824 8000 -PLRA OVC008 650183
BECMG 1823/1824 20011KT 9000 -RA OVC006 620802 QNH2988INS
BECMG 1902/1903 23010KT 9999 NSW OVC009 QNH2968INS
BECMG 1910/1911 27012KT 9999 BKN015 OVC030 QNH2974INS
BECMG 1913/1914 29015G25KT 9999 SCT030 QNH2976INS TX04/1903Z TNM06/1810Z

Example: see airport list